sensor_id;sensor_type;location;lat;lon;timestamp;temperature;humidity
45115;DHT22;30877;43.706;10.780;2023-12-22T00:03:39;8.50;96.70
45115;DHT22;30877;43.706;10.780;2023-12-22T00:11:20;8.60;96.70
45115;DHT22;30877;43.706;10.780;2023-12-22T00:14:20;8.60;96.70
45115;DHT22;30877;43.706;10.780;2023-12-22T00:18:19;8.60;96.70
45115;DHT22;30877;43.706;10.780;2023-12-22T00:20:50;8.60;96.70
45115;DHT22;30877;43.706;10.780;2023-12-22T00:27:46;8.70;96.70
45115;DHT22;30877;43.706;10.780;2023-12-22T00:31:04;8.70;96.70
45115;DHT22;30877;43.706;10.780;2023-12-22T00:33:44;8.70;96.70
45115;DHT22;30877;43.706;10.780;2023-12-22T00:37:07;8.70;96.70
45115;DHT22;30877;43.706;10.780;2023-12-22T00:40:36;8.70;96.70
45115;DHT22;30877;43.706;10.780;2023-12-22T00:57:38;8.80;96.70
45115;DHT22;30877;43.706;10.780;2023-12-22T00:59:51;8.80;96.70
45115;DHT22;30877;43.706;10.780;2023-12-22T01:02:23;8.80;96.70
45115;DHT22;30877;43.706;10.780;2023-12-22T01:05:37;8.80;96.70
45115;DHT22;30877;43.706;10.780;2023-12-22T01:09:23;8.80;96.70
45115;DHT22;30877;43.706;10.780;2023-12-22T01:12:01;8.90;96.70
45115;DHT22;30877;43.706;10.780;2023-12-22T01:15:48;8.90;96.70
45115;DHT22;30877;43.706;10.780;2023-12-22T01:22:57;8.90;96.70
45115;DHT22;30877;43.706;10.780;2023-12-22T01:25:25;8.90;96.70
45115;DHT22;30877;43.706;10.780;2023-12-22T01:28:11;8.90;96.70
45115;DHT22;30877;43.706;10.780;2023-12-22T01:31:24;8.80;96.70
45115;DHT22;30877;43.706;10.780;2023-12-22T01:38:16;8.80;96.70
45115;DHT22;30877;43.706;10.780;2023-12-22T02:02:05;8.80;96.70
45115;DHT22;30877;43.706;10.780;2023-12-22T02:05:47;8.80;96.70
45115;DHT22;30877;43.706;10.780;2023-12-22T02:08:23;8.90;96.70
45115;DHT22;30877;43.706;10.780;2023-12-22T02:30:23;8.90;96.70
45115;DHT22;30877;43.706;10.780;2023-12-22T02:58:40;8.80;96.70
45115;DHT22;30877;43.706;10.780;2023-12-22T03:01:30;8.80;96.70
45115;DHT22;30877;43.706;10.780;2023-12-22T03:07:30;8.80;96.70
45115;DHT22;30877;43.706;10.780;2023-12-22T03:10:03;8.80;96.70
45115;DHT22;30877;43.706;10.780;2023-12-22T03:13:16;8.80;96.70
45115;DHT22;30877;43.706;10.780;2023-12-22T03:20:38;8.70;96.70
45115;DHT22;30877;43.706;10.780;2023-12-22T03:23:18;8.70;96.70
45115;DHT22;30877;43.706;10.780;2023-12-22T03:25:47;8.70;96.70
45115;DHT22;30877;43.706;10.780;2023-12-22T03:41:38;8.60;96.70
45115;DHT22;30877;43.706;10.780;2023-12-22T03:51:59;8.60;96.70
45115;DHT22;30877;43.706;10.780;2023-12-22T03:58:14;8.60;96.70
45115;DHT22;30877;43.706;10.780;2023-12-22T04:00:51;8.70;96.70
45115;DHT22;30877;43.706;10.780;2023-12-22T04:07:47;8.70;96.70
45115;DHT22;30877;43.706;10.780;2023-12-22T04:10:19;8.70;96.70
45115;DHT22;30877;43.706;10.780;2023-12-22T04:12:50;8.70;96.70
45115;DHT22;30877;43.706;10.780;2023-12-22T04:15:23;8.70;96.70
45115;DHT22;30877;43.706;10.780;2023-12-22T04:18:04;8.70;96.70
45115;DHT22;30877;43.706;10.780;2023-12-22T04:25:23;8.70;96.70
45115;DHT22;30877;43.706;10.780;2023-12-22T04:28:43;8.70;96.70
45115;DHT22;30877;43.706;10.780;2023-12-22T04:34:53;8.70;96.70
45115;DHT22;30877;43.706;10.780;2023-12-22T04:46:00;8.70;96.70
45115;DHT22;30877;43.706;10.780;2023-12-22T04:51:53;8.70;96.70
45115;DHT22;30877;43.706;10.780;2023-12-22T04:54:24;8.70;96.70
45115;DHT22;30877;43.706;10.780;2023-12-22T04:57:21;8.70;96.70
45115;DHT22;30877;43.706;10.780;2023-12-22T04:59:51;8.70;96.70
45115;DHT22;30877;43.706;10.780;2023-12-22T05:03:21;8.70;96.70
45115;DHT22;30877;43.706;10.780;2023-12-22T05:06:11;8.70;96.70
45115;DHT22;30877;43.706;10.780;2023-12-22T05:08:42;8.70;96.70
45115;DHT22;30877;43.706;10.780;2023-12-22T05:11:11;8.70;96.70
45115;DHT22;30877;43.706;10.780;2023-12-22T05:13:45;8.70;96.70
45115;DHT22;30877;43.706;10.780;2023-12-22T05:16:37;8.70;96.70
45115;DHT22;30877;43.706;10.780;2023-12-22T05:20:01;8.80;96.70
45115;DHT22;30877;43.706;10.780;2023-12-22T05:22:30;8.80;96.70
45115;DHT22;30877;43.706;10.780;2023-12-22T05:25:43;8.80;96.70
45115;DHT22;30877;43.706;10.780;2023-12-22T05:28:23;8.80;96.70
45115;DHT22;30877;43.706;10.780;2023-12-22T05:32:04;8.80;96.70
45115;DHT22;30877;43.706;10.780;2023-12-22T05:35:22;8.80;96.70
45115;DHT22;30877;43.706;10.780;2023-12-22T05:38:16;8.80;96.70
45115;DHT22;30877;43.706;10.780;2023-12-22T05:53:27;8.80;96.70
45115;DHT22;30877;43.706;10.780;2023-12-22T06:21:51;8.70;96.70
45115;DHT22;30877;43.706;10.780;2023-12-22T06:24:20;8.70;96.70
45115;DHT22;30877;43.706;10.780;2023-12-22T06:31:42;8.70;96.70
45115;DHT22;30877;43.706;10.780;2023-12-22T06:34:49;8.60;96.70
45115;DHT22;30877;43.706;10.780;2023-12-22T06:37:21;8.60;96.70
45115;DHT22;30877;43.706;10.780;2023-12-22T06:39:59;8.50;96.70
45115;DHT22;30877;43.706;10.780;2023-12-22T06:42:29;8.50;96.70
45115;DHT22;30877;43.706;10.780;2023-12-22T06:44:58;8.50;96.70
45115;DHT22;30877;43.706;10.780;2023-12-22T06:51:40;8.30;96.70
45115;DHT22;30877;43.706;10.780;2023-12-22T06:58:35;8.30;96.70
45115;DHT22;30877;43.706;10.780;2023-12-22T07:01:44;8.20;96.70
45115;DHT22;30877;43.706;10.780;2023-12-22T07:34:05;8.10;96.70
45115;DHT22;30877;43.706;10.780;2023-12-22T07:37:02;8.10;96.70
45115;DHT22;30877;43.706;10.780;2023-12-22T07:42:44;8.10;96.70
45115;DHT22;30877;43.706;10.780;2023-12-22T07:43:17;8.20;96.70
45115;DHT22;30877;43.706;10.780;2023-12-22T07:46:19;8.20;96.70
45115;DHT22;30877;43.706;10.780;2023-12-22T07:49:34;8.20;96.70
45115;DHT22;30877;43.706;10.780;2023-12-22T07:52:20;8.20;96.70
45115;DHT22;30877;43.706;10.780;2023-12-22T07:56:20;8.20;96.70
45115;DHT22;30877;43.706;10.780;2023-12-22T08:11:21;8.30;96.70
45115;DHT22;30877;43.706;10.780;2023-12-22T08:13:53;8.40;96.70
45115;DHT22;30877;43.706;10.780;2023-12-22T08:16:31;8.40;96.70
45115;DHT22;30877;43.706;10.780;2023-12-22T08:39:27;8.70;96.70
45115;DHT22;30877;43.706;10.780;2023-12-22T08:46:20;8.90;96.70
45115;DHT22;30877;43.706;10.780;2023-12-22T08:48:49;9.00;96.70
45115;DHT22;30877;43.706;10.780;2023-12-22T08:51:18;9.00;96.70
45115;DHT22;30877;43.706;10.780;2023-12-22T08:58:52;9.10;96.70
45115;DHT22;30877;43.706;10.780;2023-12-22T09:01:45;9.20;96.70
45115;DHT22;30877;43.706;10.780;2023-12-22T09:08:17;9.20;96.70
45115;DHT22;30877;43.706;10.780;2023-12-22T09:15:01;9.40;96.70
45115;DHT22;30877;43.706;10.780;2023-12-22T09:17:55;9.50;96.70
45115;DHT22;30877;43.706;10.780;2023-12-22T09:30:12;9.90;96.70
45115;DHT22;30877;43.706;10.780;2023-12-22T09:36:52;10.10;96.70
45115;DHT22;30877;43.706;10.780;2023-12-22T09:40:25;10.10;96.70
45115;DHT22;30877;43.706;10.780;2023-12-22T09:43:12;10.10;96.70
45115;DHT22;30877;43.706;10.780;2023-12-22T09:50:43;10.20;96.70
45115;DHT22;30877;43.706;10.780;2023-12-22T09:53:14;10.20;96.70
45115;DHT22;30877;43.706;10.780;2023-12-22T09:55:44;10.10;96.70
45115;DHT22;30877;43.706;10.780;2023-12-22T09:58:15;10.10;96.70
45115;DHT22;30877;43.706;10.780;2023-12-22T10:00:45;10.10;96.70
45115;DHT22;30877;43.706;10.780;2023-12-22T10:03:16;10.10;96.70
45115;DHT22;30877;43.706;10.780;2023-12-22T10:05:48;10.10;96.70
45115;DHT22;30877;43.706;10.780;2023-12-22T10:08:20;10.10;96.70
45115;DHT22;30877;43.706;10.780;2023-12-22T10:10:50;10.10;96.70
45115;DHT22;30877;43.706;10.780;2023-12-22T10:13:21;10.10;96.70
45115;DHT22;30877;43.706;10.780;2023-12-22T10:15:51;10.20;96.70
45115;DHT22;30877;43.706;10.780;2023-12-22T10:18:19;10.20;96.70
45115;DHT22;30877;43.706;10.780;2023-12-22T10:20:50;10.30;96.70
45115;DHT22;30877;43.706;10.780;2023-12-22T10:23:18;10.30;96.70
45115;DHT22;30877;43.706;10.780;2023-12-22T10:25:46;10.40;96.70
45115;DHT22;30877;43.706;10.780;2023-12-22T10:28:15;10.40;96.70
45115;DHT22;30877;43.706;10.780;2023-12-22T10:30:45;10.50;96.70
45115;DHT22;30877;43.706;10.780;2023-12-22T10:33:14;10.60;96.70
45115;DHT22;30877;43.706;10.780;2023-12-22T10:35:43;10.80;96.70
45115;DHT22;30877;43.706;10.780;2023-12-22T10:38:13;10.90;96.70
45115;DHT22;30877;43.706;10.780;2023-12-22T10:40:43;11.10;96.70
45115;DHT22;30877;43.706;10.780;2023-12-22T10:43:13;11.10;96.70
45115;DHT22;30877;43.706;10.780;2023-12-22T10:45:46;11.30;96.70
45115;DHT22;30877;43.706;10.780;2023-12-22T10:48:14;11.30;96.70
45115;DHT22;30877;43.706;10.780;2023-12-22T10:50:43;11.50;96.70
45115;DHT22;30877;43.706;10.780;2023-12-22T10:53:14;11.60;96.70
45115;DHT22;30877;43.706;10.780;2023-12-22T10:55:47;11.70;96.70
45115;DHT22;30877;43.706;10.780;2023-12-22T10:58:18;11.70;96.70
45115;DHT22;30877;43.706;10.780;2023-12-22T11:00:48;11.80;96.70
45115;DHT22;30877;43.706;10.780;2023-12-22T11:03:21;11.80;96.70
45115;DHT22;30877;43.706;10.780;2023-12-22T11:05:52;11.80;96.70
45115;DHT22;30877;43.706;10.780;2023-12-22T11:08:27;11.90;96.70
45115;DHT22;30877;43.706;10.780;2023-12-22T11:10:59;11.90;96.70
45115;DHT22;30877;43.706;10.780;2023-12-22T11:13:32;11.90;96.70
45115;DHT22;30877;43.706;10.780;2023-12-22T11:16:03;11.90;96.70
45115;DHT22;30877;43.706;10.780;2023-12-22T11:18:33;12.00;96.70
45115;DHT22;30877;43.706;10.780;2023-12-22T11:21:06;12.00;96.70
45115;DHT22;30877;43.706;10.780;2023-12-22T11:23:39;11.90;96.70
45115;DHT22;30877;43.706;10.780;2023-12-22T11:26:09;11.80;96.70
45115;DHT22;30877;43.706;10.780;2023-12-22T11:28:40;11.80;96.70
45115;DHT22;30877;43.706;10.780;2023-12-22T11:31:12;11.80;96.70
45115;DHT22;30877;43.706;10.780;2023-12-22T11:33:45;11.90;96.70
45115;DHT22;30877;43.706;10.780;2023-12-22T11:36:31;12.00;96.70
45115;DHT22;30877;43.706;10.780;2023-12-22T11:39:03;12.40;96.70
45115;DHT22;30877;43.706;10.780;2023-12-22T11:41:35;12.80;96.70
45115;DHT22;30877;43.706;10.780;2023-12-22T11:44:06;13.10;96.70
45115;DHT22;30877;43.706;10.780;2023-12-22T11:46:48;13.40;96.70
45115;DHT22;30877;43.706;10.780;2023-12-22T11:49:19;13.60;96.70
45115;DHT22;30877;43.706;10.780;2023-12-22T11:51:48;13.70;96.70
45115;DHT22;30877;43.706;10.780;2023-12-22T11:58:37;14.30;96.70
45115;DHT22;30877;43.706;10.780;2023-12-22T12:01:09;14.60;96.70
45115;DHT22;30877;43.706;10.780;2023-12-22T12:04:38;14.60;96.70
45115;DHT22;30877;43.706;10.780;2023-12-22T12:11:18;14.80;96.70
45115;DHT22;30877;43.706;10.780;2023-12-22T12:13:50;14.90;96.70
45115;DHT22;30877;43.706;10.780;2023-12-22T12:16:20;14.90;96.70
45115;DHT22;30877;43.706;10.780;2023-12-22T12:18:53;15.00;96.70
45115;DHT22;30877;43.706;10.780;2023-12-22T12:21:27;15.10;96.70
45115;DHT22;30877;43.706;10.780;2023-12-22T12:23:56;15.10;96.70
45115;DHT22;30877;43.706;10.780;2023-12-22T12:26:45;15.20;96.70
45115;DHT22;30877;43.706;10.780;2023-12-22T12:29:20;15.20;96.70
45115;DHT22;30877;43.706;10.780;2023-12-22T12:32:14;15.00;96.70
45115;DHT22;30877;43.706;10.780;2023-12-22T12:34:55;14.90;96.70
45115;DHT22;30877;43.706;10.780;2023-12-22T12:37:25;14.90;96.70
45115;DHT22;30877;43.706;10.780;2023-12-22T12:40:30;14.80;96.70
45115;DHT22;30877;43.706;10.780;2023-12-22T12:53:07;14.50;96.70
45115;DHT22;30877;43.706;10.780;2023-12-22T12:56:14;14.80;96.70
45115;DHT22;30877;43.706;10.780;2023-12-22T12:58:45;15.10;96.70
45115;DHT22;30877;43.706;10.780;2023-12-22T13:01:15;15.30;96.70
45115;DHT22;30877;43.706;10.780;2023-12-22T13:05:00;15.30;96.70
45115;DHT22;30877;43.706;10.780;2023-12-22T13:07:49;15.30;96.70
45115;DHT22;30877;43.706;10.780;2023-12-22T13:10:24;15.40;96.70
45115;DHT22;30877;43.706;10.780;2023-12-22T13:12:53;15.40;96.70
45115;DHT22;30877;43.706;10.780;2023-12-22T13:15:22;15.20;96.70
45115;DHT22;30877;43.706;10.780;2023-12-22T13:17:50;15.20;96.70
45115;DHT22;30877;43.706;10.780;2023-12-22T13:20:21;15.30;96.70
45115;DHT22;30877;43.706;10.780;2023-12-22T13:22:50;15.30;96.70
45115;DHT22;30877;43.706;10.780;2023-12-22T13:37:31;15.30;96.70
45115;DHT22;30877;43.706;10.780;2023-12-22T13:40:07;15.30;96.70
45115;DHT22;30877;43.706;10.780;2023-12-22T13:47:34;15.30;96.70
45115;DHT22;30877;43.706;10.780;2023-12-22T13:54:20;15.30;96.70
45115;DHT22;30877;43.706;10.780;2023-12-22T14:01:13;15.30;96.70
45115;DHT22;30877;43.706;10.780;2023-12-22T14:04:03;15.30;96.70
45115;DHT22;30877;43.706;10.780;2023-12-22T14:06:32;15.30;96.70
45115;DHT22;30877;43.706;10.780;2023-12-22T14:09:02;15.30;96.70
45115;DHT22;30877;43.706;10.780;2023-12-22T14:11:32;15.30;96.70
45115;DHT22;30877;43.706;10.780;2023-12-22T14:14:01;15.30;96.70
45115;DHT22;30877;43.706;10.780;2023-12-22T14:16:30;15.20;96.70
45115;DHT22;30877;43.706;10.780;2023-12-22T14:18:58;15.20;96.70
45115;DHT22;30877;43.706;10.780;2023-12-22T14:21:27;15.20;96.70
45115;DHT22;30877;43.706;10.780;2023-12-22T14:23:56;15.10;96.70
45115;DHT22;30877;43.706;10.780;2023-12-22T14:26:24;15.10;96.70
45115;DHT22;30877;43.706;10.780;2023-12-22T14:28:55;15.10;96.70
45115;DHT22;30877;43.706;10.780;2023-12-22T14:31:24;15.00;96.70
45115;DHT22;30877;43.706;10.780;2023-12-22T14:33:53;15.00;96.70
45115;DHT22;30877;43.706;10.780;2023-12-22T14:36:23;15.00;96.70
45115;DHT22;30877;43.706;10.780;2023-12-22T14:38:53;15.00;96.70
45115;DHT22;30877;43.706;10.780;2023-12-22T14:41:21;15.00;96.70
45115;DHT22;30877;43.706;10.780;2023-12-22T14:43:50;15.00;96.70
45115;DHT22;30877;43.706;10.780;2023-12-22T14:46:21;14.90;96.70
45115;DHT22;30877;43.706;10.780;2023-12-22T14:48:49;14.90;96.70
45115;DHT22;30877;43.706;10.780;2023-12-22T14:51:18;14.90;96.70
45115;DHT22;30877;43.706;10.780;2023-12-22T14:53:47;14.90;96.70
45115;DHT22;30877;43.706;10.780;2023-12-22T14:56:17;14.80;96.70
45115;DHT22;30877;43.706;10.780;2023-12-22T14:58:45;14.80;96.70
45115;DHT22;30877;43.706;10.780;2023-12-22T15:01:14;14.70;96.70
45115;DHT22;30877;43.706;10.780;2023-12-22T15:03:45;14.70;96.70
45115;DHT22;30877;43.706;10.780;2023-12-22T15:06:14;14.70;96.70
45115;DHT22;30877;43.706;10.780;2023-12-22T15:08:44;14.60;96.70
45115;DHT22;30877;43.706;10.780;2023-12-22T15:11:13;14.60;96.70
45115;DHT22;30877;43.706;10.780;2023-12-22T15:13:43;14.50;96.70
45115;DHT22;30877;43.706;10.780;2023-12-22T15:16:12;14.50;96.70
45115;DHT22;30877;43.706;10.780;2023-12-22T15:18:40;14.40;96.70
45115;DHT22;30877;43.706;10.780;2023-12-22T15:21:19;14.40;96.70
45115;DHT22;30877;43.706;10.780;2023-12-22T15:23:48;14.30;96.70
45115;DHT22;30877;43.706;10.780;2023-12-22T15:26:20;14.30;96.70
45115;DHT22;30877;43.706;10.780;2023-12-22T15:28:50;14.20;96.70
45115;DHT22;30877;43.706;10.780;2023-12-22T15:31:20;14.10;96.70
45115;DHT22;30877;43.706;10.780;2023-12-22T15:33:49;14.00;96.70
45115;DHT22;30877;43.706;10.780;2023-12-22T15:36:19;13.90;96.70
45115;DHT22;30877;43.706;10.780;2023-12-22T15:38:50;13.70;96.70
45115;DHT22;30877;43.706;10.780;2023-12-22T15:41:21;13.60;96.70
45115;DHT22;30877;43.706;10.780;2023-12-22T15:43:49;13.50;96.70
45115;DHT22;30877;43.706;10.780;2023-12-22T15:46:19;13.50;96.70
45115;DHT22;30877;43.706;10.780;2023-12-22T15:48:48;13.50;96.70
45115;DHT22;30877;43.706;10.780;2023-12-22T15:51:18;13.50;96.70
45115;DHT22;30877;43.706;10.780;2023-12-22T15:53:50;13.40;96.70
45115;DHT22;30877;43.706;10.780;2023-12-22T15:56:20;13.20;96.70
45115;DHT22;30877;43.706;10.780;2023-12-22T15:58:49;13.20;96.70
45115;DHT22;30877;43.706;10.780;2023-12-22T16:01:17;13.20;96.70
45115;DHT22;30877;43.706;10.780;2023-12-22T16:03:47;13.10;96.70
45115;DHT22;30877;43.706;10.780;2023-12-22T16:06:22;13.00;96.70
45115;DHT22;30877;43.706;10.780;2023-12-22T16:08:50;12.90;96.70
45115;DHT22;30877;43.706;10.780;2023-12-22T16:11:20;12.80;96.70
45115;DHT22;30877;43.706;10.780;2023-12-22T16:13:50;12.90;96.70
45115;DHT22;30877;43.706;10.780;2023-12-22T16:16:20;12.80;96.70
45115;DHT22;30877;43.706;10.780;2023-12-22T16:18:48;12.70;96.70
45115;DHT22;30877;43.706;10.780;2023-12-22T16:21:17;12.70;96.70
45115;DHT22;30877;43.706;10.780;2023-12-22T16:23:47;12.70;96.70
45115;DHT22;30877;43.706;10.780;2023-12-22T16:26:41;12.60;96.70
45115;DHT22;30877;43.706;10.780;2023-12-22T16:29:09;12.40;96.70
45115;DHT22;30877;43.706;10.780;2023-12-22T16:31:38;12.30;96.70
45115;DHT22;30877;43.706;10.780;2023-12-22T16:34:09;12.20;96.70
45115;DHT22;30877;43.706;10.780;2023-12-22T16:36:38;12.30;96.70
45115;DHT22;30877;43.706;10.780;2023-12-22T16:39:09;12.30;96.70
45115;DHT22;30877;43.706;10.780;2023-12-22T16:41:39;12.40;96.70
45115;DHT22;30877;43.706;10.780;2023-12-22T16:44:08;12.50;96.70
45115;DHT22;30877;43.706;10.780;2023-12-22T16:46:36;12.50;96.70
45115;DHT22;30877;43.706;10.780;2023-12-22T16:54:03;12.80;96.70
45115;DHT22;30877;43.706;10.780;2023-12-22T17:00:22;12.90;96.70
45115;DHT22;30877;43.706;10.780;2023-12-22T17:07:36;12.90;96.70
45115;DHT22;30877;43.706;10.780;2023-12-22T17:13:45;13.00;96.70
45115;DHT22;30877;43.706;10.780;2023-12-22T17:16:16;13.00;96.70
45115;DHT22;30877;43.706;10.780;2023-12-22T17:19:12;13.00;96.70
45115;DHT22;30877;43.706;10.780;2023-12-22T17:22:04;13.00;96.70
45115;DHT22;30877;43.706;10.780;2023-12-22T17:24:46;12.90;96.70
45115;DHT22;30877;43.706;10.780;2023-12-22T17:31:05;13.10;96.70
45115;DHT22;30877;43.706;10.780;2023-12-22T17:33:36;13.10;96.70
45115;DHT22;30877;43.706;10.780;2023-12-22T17:36:07;13.00;96.70
45115;DHT22;30877;43.706;10.780;2023-12-22T18:03:21;13.00;96.70
45115;DHT22;30877;43.706;10.780;2023-12-22T18:05:51;13.00;96.70
45115;DHT22;30877;43.706;10.780;2023-12-22T18:09:03;13.00;96.70
45115;DHT22;30877;43.706;10.780;2023-12-22T18:15:48;13.00;96.70
45115;DHT22;30877;43.706;10.780;2023-12-22T18:23:25;12.90;96.70
45115;DHT22;30877;43.706;10.780;2023-12-22T18:51:37;13.10;96.70
45115;DHT22;30877;43.706;10.780;2023-12-22T18:54:13;13.10;96.70
45115;DHT22;30877;43.706;10.780;2023-12-22T18:56:42;13.10;96.70
45115;DHT22;30877;43.706;10.780;2023-12-22T18:59:11;13.10;96.70
45115;DHT22;30877;43.706;10.780;2023-12-22T19:01:51;13.10;96.70
45115;DHT22;30877;43.706;10.780;2023-12-22T19:08:23;13.00;96.70
45115;DHT22;30877;43.706;10.780;2023-12-22T19:14:31;12.70;96.70
45115;DHT22;30877;43.706;10.780;2023-12-22T19:17:32;12.40;96.70
45115;DHT22;30877;43.706;10.780;2023-12-22T19:20:10;12.20;96.70
45115;DHT22;30877;43.706;10.780;2023-12-22T19:29:07;11.80;96.70
45115;DHT22;30877;43.706;10.780;2023-12-22T19:31:37;11.70;96.70
45115;DHT22;30877;43.706;10.780;2023-12-22T19:34:07;11.70;96.70
45115;DHT22;30877;43.706;10.780;2023-12-22T19:36:36;11.60;96.70
45115;DHT22;30877;43.706;10.780;2023-12-22T19:39:07;11.50;96.70
45115;DHT22;30877;43.706;10.780;2023-12-22T19:41:36;11.40;96.70
45115;DHT22;30877;43.706;10.780;2023-12-22T19:44:05;11.40;96.70
45115;DHT22;30877;43.706;10.780;2023-12-22T19:46:34;11.40;96.70
45115;DHT22;30877;43.706;10.780;2023-12-22T19:49:03;11.30;96.70
45115;DHT22;30877;43.706;10.780;2023-12-22T19:51:31;11.30;96.70
45115;DHT22;30877;43.706;10.780;2023-12-22T19:54:00;11.20;96.70
45115;DHT22;30877;43.706;10.780;2023-12-22T19:56:34;11.10;96.70
45115;DHT22;30877;43.706;10.780;2023-12-22T19:59:02;11.10;96.70
45115;DHT22;30877;43.706;10.780;2023-12-22T20:01:31;11.10;96.70
45115;DHT22;30877;43.706;10.780;2023-12-22T20:04:01;11.00;96.70
45115;DHT22;30877;43.706;10.780;2023-12-22T20:06:29;11.00;96.70
45115;DHT22;30877;43.706;10.780;2023-12-22T20:09:01;11.00;96.70
45115;DHT22;30877;43.706;10.780;2023-12-22T20:11:34;11.00;96.70
45115;DHT22;30877;43.706;10.780;2023-12-22T20:14:04;10.90;96.70
45115;DHT22;30877;43.706;10.780;2023-12-22T20:16:33;10.90;96.70
45115;DHT22;30877;43.706;10.780;2023-12-22T20:19:03;10.90;96.70
45115;DHT22;30877;43.706;10.780;2023-12-22T20:21:32;10.80;96.70
45115;DHT22;30877;43.706;10.780;2023-12-22T20:24:01;10.80;96.70
45115;DHT22;30877;43.706;10.780;2023-12-22T20:26:30;10.70;96.70
45115;DHT22;30877;43.706;10.780;2023-12-22T20:29:05;10.70;96.70
45115;DHT22;30877;43.706;10.780;2023-12-22T20:31:34;10.70;96.70
45115;DHT22;30877;43.706;10.780;2023-12-22T20:34:02;10.70;96.70
45115;DHT22;30877;43.706;10.780;2023-12-22T20:36:31;10.70;96.70
45115;DHT22;30877;43.706;10.780;2023-12-22T20:39:04;10.60;96.70
45115;DHT22;30877;43.706;10.780;2023-12-22T20:41:32;10.60;96.70
45115;DHT22;30877;43.706;10.780;2023-12-22T20:44:03;10.60;96.70
45115;DHT22;30877;43.706;10.780;2023-12-22T20:46:33;10.60;96.70
45115;DHT22;30877;43.706;10.780;2023-12-22T20:49:04;10.60;96.70
45115;DHT22;30877;43.706;10.780;2023-12-22T20:51:39;10.60;96.70
45115;DHT22;30877;43.706;10.780;2023-12-22T20:54:08;10.50;96.70
45115;DHT22;30877;43.706;10.780;2023-12-22T20:56:37;10.50;96.70
45115;DHT22;30877;43.706;10.780;2023-12-22T20:59:08;10.50;96.70
45115;DHT22;30877;43.706;10.780;2023-12-22T21:01:37;10.40;96.70
45115;DHT22;30877;43.706;10.780;2023-12-22T21:04:08;10.20;96.70
45115;DHT22;30877;43.706;10.780;2023-12-22T21:06:36;10.10;96.70
45115;DHT22;30877;43.706;10.780;2023-12-22T21:09:06;10.10;96.70
45115;DHT22;30877;43.706;10.780;2023-12-22T21:11:37;10.10;96.70
45115;DHT22;30877;43.706;10.780;2023-12-22T21:14:08;9.90;96.70
45115;DHT22;30877;43.706;10.780;2023-12-22T21:16:43;9.90;96.70
45115;DHT22;30877;43.706;10.780;2023-12-22T21:19:12;9.90;96.70
45115;DHT22;30877;43.706;10.780;2023-12-22T21:21:41;9.90;96.70
45115;DHT22;30877;43.706;10.780;2023-12-22T21:24:11;9.90;96.70
45115;DHT22;30877;43.706;10.780;2023-12-22T21:26:40;9.90;96.70
45115;DHT22;30877;43.706;10.780;2023-12-22T21:29:11;9.90;96.70
45115;DHT22;30877;43.706;10.780;2023-12-22T21:31:41;9.90;96.70
45115;DHT22;30877;43.706;10.780;2023-12-22T21:34:11;9.70;96.70
45115;DHT22;30877;43.706;10.780;2023-12-22T21:36:40;9.60;96.70
45115;DHT22;30877;43.706;10.780;2023-12-22T21:39:10;9.60;96.70
45115;DHT22;30877;43.706;10.780;2023-12-22T21:41:39;9.60;96.70
45115;DHT22;30877;43.706;10.780;2023-12-22T21:44:10;9.50;96.70
45115;DHT22;30877;43.706;10.780;2023-12-22T21:46:42;9.60;96.70
45115;DHT22;30877;43.706;10.780;2023-12-22T21:49:12;9.60;96.70
45115;DHT22;30877;43.706;10.780;2023-12-22T21:51:40;9.60;96.70
45115;DHT22;30877;43.706;10.780;2023-12-22T21:54:11;9.50;96.70
45115;DHT22;30877;43.706;10.780;2023-12-22T21:56:43;9.50;96.70
45115;DHT22;30877;43.706;10.780;2023-12-22T21:59:14;9.50;96.70
45115;DHT22;30877;43.706;10.780;2023-12-22T22:01:46;9.40;96.70
45115;DHT22;30877;43.706;10.780;2023-12-22T22:04:16;9.40;96.70
45115;DHT22;30877;43.706;10.780;2023-12-22T22:06:45;9.40;96.70
45115;DHT22;30877;43.706;10.780;2023-12-22T22:09:15;9.40;96.70
45115;DHT22;30877;43.706;10.780;2023-12-22T22:11:44;9.40;96.70
45115;DHT22;30877;43.706;10.780;2023-12-22T22:14:15;9.40;96.70
45115;DHT22;30877;43.706;10.780;2023-12-22T22:16:56;9.30;96.70
45115;DHT22;30877;43.706;10.780;2023-12-22T22:19:26;9.30;96.70
45115;DHT22;30877;43.706;10.780;2023-12-22T22:21:54;9.30;96.70
45115;DHT22;30877;43.706;10.780;2023-12-22T22:24:23;9.30;96.70
45115;DHT22;30877;43.706;10.780;2023-12-22T22:26:52;9.30;96.70
45115;DHT22;30877;43.706;10.780;2023-12-22T22:29:23;9.30;96.70
45115;DHT22;30877;43.706;10.780;2023-12-22T22:31:51;9.30;96.70
45115;DHT22;30877;43.706;10.780;2023-12-22T22:34:20;9.20;96.70
45115;DHT22;30877;43.706;10.780;2023-12-22T22:36:49;9.30;96.70
45115;DHT22;30877;43.706;10.780;2023-12-22T22:39:17;9.20;96.70
45115;DHT22;30877;43.706;10.780;2023-12-22T22:41:46;9.20;96.70
45115;DHT22;30877;43.706;10.780;2023-12-22T22:44:16;9.20;96.70
45115;DHT22;30877;43.706;10.780;2023-12-22T22:46:47;9.20;96.70
45115;DHT22;30877;43.706;10.780;2023-12-22T22:49:16;9.10;96.70
45115;DHT22;30877;43.706;10.780;2023-12-22T22:51:45;9.10;96.70
45115;DHT22;30877;43.706;10.780;2023-12-22T22:54:15;9.10;96.70
45115;DHT22;30877;43.706;10.780;2023-12-22T22:56:44;9.10;96.70
45115;DHT22;30877;43.706;10.780;2023-12-22T22:59:13;9.10;96.70
45115;DHT22;30877;43.706;10.780;2023-12-22T23:01:47;9.00;96.70
45115;DHT22;30877;43.706;10.780;2023-12-22T23:04:16;9.00;96.70
45115;DHT22;30877;43.706;10.780;2023-12-22T23:06:45;9.00;96.70
45115;DHT22;30877;43.706;10.780;2023-12-22T23:09:14;9.00;96.70
45115;DHT22;30877;43.706;10.780;2023-12-22T23:11:43;9.00;96.70
45115;DHT22;30877;43.706;10.780;2023-12-22T23:14:12;9.00;96.70
45115;DHT22;30877;43.706;10.780;2023-12-22T23:16:41;9.00;96.70
45115;DHT22;30877;43.706;10.780;2023-12-22T23:19:11;9.00;96.70
45115;DHT22;30877;43.706;10.780;2023-12-22T23:21:40;9.00;96.70
45115;DHT22;30877;43.706;10.780;2023-12-22T23:24:09;9.10;96.70
45115;DHT22;30877;43.706;10.780;2023-12-22T23:26:40;9.10;96.70
45115;DHT22;30877;43.706;10.780;2023-12-22T23:29:12;9.10;96.70
45115;DHT22;30877;43.706;10.780;2023-12-22T23:31:40;9.10;96.70
45115;DHT22;30877;43.706;10.780;2023-12-22T23:34:15;9.00;96.70
45115;DHT22;30877;43.706;10.780;2023-12-22T23:36:44;8.80;96.70
45115;DHT22;30877;43.706;10.780;2023-12-22T23:39:14;8.70;96.70
45115;DHT22;30877;43.706;10.780;2023-12-22T23:41:43;8.80;96.70
45115;DHT22;30877;43.706;10.780;2023-12-22T23:44:11;8.80;96.70
45115;DHT22;30877;43.706;10.780;2023-12-22T23:46:40;8.70;96.70